sensor_id;sensor_type;location;lat;lon;timestamp;pressure;altitude;pressure_sealevel;temperature;humidity
65997;BME280;52765;52.258;21.052;2022-09-01T00:02:23;101120.00;;;14.60;86.57
65997;BME280;52765;52.258;21.052;2022-09-01T00:04:51;101120.53;;;14.64;86.41
65997;BME280;52765;52.258;21.052;2022-09-01T00:07:21;101117.81;;;14.64;86.63
65997;BME280;52765;52.258;21.052;2022-09-01T00:09:47;101120.69;;;14.62;86.43
65997;BME280;52765;52.258;21.052;2022-09-01T00:12:12;101118.69;;;14.64;86.15
65997;BME280;52765;52.258;21.052;2022-09-01T00:14:39;101113.59;;;14.61;86.81
65997;BME280;52765;52.258;21.052;2022-09-01T00:17:09;101117.16;;;14.70;87.83
65997;BME280;52765;52.258;21.052;2022-09-01T00:19:37;101106.44;;;14.60;87.55
65997;BME280;52765;52.258;21.052;2022-09-01T00:22:04;101117.97;;;14.62;86.47
65997;BME280;52765;52.258;21.052;2022-09-01T00:24:30;101120.13;;;14.58;86.43
65997;BME280;52765;52.258;21.052;2022-09-01T00:26:56;101112.84;;;14.51;87.00
65997;BME280;52765;52.258;21.052;2022-09-01T00:29:22;101111.13;;;14.50;86.75
65997;BME280;52765;52.258;21.052;2022-09-01T00:31:48;101106.91;;;14.47;87.35
65997;BME280;52765;52.258;21.052;2022-09-01T00:34:15;101123.16;;;14.55;87.04
65997;BME280;52765;52.258;21.052;2022-09-01T00:36:41;101112.66;;;14.44;87.12
65997;BME280;52765;52.258;21.052;2022-09-01T00:39:07;101101.38;;;14.22;88.47
65997;BME280;52765;52.258;21.052;2022-09-01T00:41:35;101112.56;;;14.28;88.33
65997;BME280;52765;52.258;21.052;2022-09-01T00:44:08;101116.50;;;14.33;88.40
65997;BME280;52765;52.258;21.052;2022-09-01T00:46:43;101129.00;;;14.26;88.87
65997;BME280;52765;52.258;21.052;2022-09-01T00:51:49;101114.22;;;14.12;89.16
65997;BME280;52765;52.258;21.052;2022-09-01T00:54:20;101098.53;;;13.98;89.63
65997;BME280;52765;52.258;21.052;2022-09-01T00:56:47;101105.69;;;14.07;89.66
65997;BME280;52765;52.258;21.052;2022-09-01T00:59:14;101112.13;;;14.06;89.56
65997;BME280;52765;52.258;21.052;2022-09-01T01:01:41;101105.28;;;13.94;90.29
65997;BME280;52765;52.258;21.052;2022-09-01T01:04:08;101089.16;;;13.84;90.33
65997;BME280;52765;52.258;21.052;2022-09-01T01:06:59;101117.44;;;13.90;90.65
65997;BME280;52765;52.258;21.052;2022-09-01T01:09:37;101112.94;;;13.72;92.40
65997;BME280;52765;52.258;21.052;2022-09-01T01:12:05;101119.38;;;13.71;92.40
65997;BME280;52765;52.258;21.052;2022-09-01T01:14:34;101128.19;;;13.73;91.72
65997;BME280;52765;52.258;21.052;2022-09-01T01:17:02;101124.78;;;13.71;91.93
65997;BME280;52765;52.258;21.052;2022-09-01T01:19:39;101117.50;;;13.72;92.18
65997;BME280;52765;52.258;21.052;2022-09-01T01:25:46;101123.25;;;13.50;93.16
65997;BME280;52765;52.258;21.052;2022-09-01T01:28:29;101119.41;;;13.53;92.63
65997;BME280;52765;52.258;21.052;2022-09-01T01:31:11;101122.72;;;13.47;93.07
65997;BME280;52765;52.258;21.052;2022-09-01T01:33:47;101117.59;;;13.36;93.68
65997;BME280;52765;52.258;21.052;2022-09-01T01:38:50;101118.31;;;13.28;94.79
65997;BME280;52765;52.258;21.052;2022-09-01T01:41:17;101113.22;;;13.25;94.41
65997;BME280;52765;52.258;21.052;2022-09-01T01:43:46;101110.19;;;13.28;94.28
65997;BME280;52765;52.258;21.052;2022-09-01T01:46:15;101096.38;;;13.13;94.72
65997;BME280;52765;52.258;21.052;2022-09-01T01:48:43;101107.03;;;13.14;94.90
65997;BME280;52765;52.258;21.052;2022-09-01T01:51:10;101111.47;;;13.16;95.01
65997;BME280;52765;52.258;21.052;2022-09-01T01:53:36;101102.94;;;13.10;95.14
65997;BME280;52765;52.258;21.052;2022-09-01T01:56:03;101092.69;;;12.96;95.85
65997;BME280;52765;52.258;21.052;2022-09-01T01:58:30;101091.50;;;12.99;95.75
65997;BME280;52765;52.258;21.052;2022-09-01T02:00:58;101105.03;;;12.99;95.70
65997;BME280;52765;52.258;21.052;2022-09-01T02:03:30;101119.25;;;13.01;96.33
65997;BME280;52765;52.258;21.052;2022-09-01T02:06:04;101120.03;;;12.93;96.83
65997;BME280;52765;52.258;21.052;2022-09-01T02:08:33;101104.56;;;12.85;97.07
65997;BME280;52765;52.258;21.052;2022-09-01T02:11:00;101111.38;;;12.89;97.17
65997;BME280;52765;52.258;21.052;2022-09-01T02:13:27;101097.91;;;12.80;96.84
65997;BME280;52765;52.258;21.052;2022-09-01T02:16:00;101105.72;;;12.83;97.00
65997;BME280;52765;52.258;21.052;2022-09-01T02:18:31;101104.00;;;12.82;96.71
65997;BME280;52765;52.258;21.052;2022-09-01T02:21:00;101092.97;;;12.75;96.66
65997;BME280;52765;52.258;21.052;2022-09-01T02:23:26;101093.25;;;12.72;96.77
65997;BME280;52765;52.258;21.052;2022-09-01T02:25:58;101099.22;;;12.75;96.52
65997;BME280;52765;52.258;21.052;2022-09-01T02:28:28;101106.94;;;12.70;97.41
65997;BME280;52765;52.258;21.052;2022-09-01T02:30:57;101092.94;;;12.57;97.74
65997;BME280;52765;52.258;21.052;2022-09-01T02:33:25;101098.19;;;12.58;97.31
65997;BME280;52765;52.258;21.052;2022-09-01T02:35:54;101101.34;;;12.54;97.90
65997;BME280;52765;52.258;21.052;2022-09-01T02:38:21;101094.84;;;12.47;98.38
65997;BME280;52765;52.258;21.052;2022-09-01T02:40:51;101113.63;;;12.48;98.77
65997;BME280;52765;52.258;21.052;2022-09-01T02:43:18;101107.53;;;12.46;98.70
65997;BME280;52765;52.258;21.052;2022-09-01T02:45:49;101114.16;;;12.52;98.22
65997;BME280;52765;52.258;21.052;2022-09-01T02:48:19;101121.88;;;12.47;98.60
65997;BME280;52765;52.258;21.052;2022-09-01T02:50:48;101103.16;;;12.35;98.37
65997;BME280;52765;52.258;21.052;2022-09-01T02:53:13;101099.09;;;12.21;99.46
65997;BME280;52765;52.258;21.052;2022-09-01T02:55:40;101110.91;;;12.20;99.34
65997;BME280;52765;52.258;21.052;2022-09-01T02:58:06;101110.31;;;12.27;99.36
65997;BME280;52765;52.258;21.052;2022-09-01T03:00:43;101098.41;;;12.19;99.62
65997;BME280;52765;52.258;21.052;2022-09-01T03:03:09;101089.03;;;12.14;99.93
65997;BME280;52765;52.258;21.052;2022-09-01T03:05:37;101106.78;;;12.26;99.08
65997;BME280;52765;52.258;21.052;2022-09-01T03:08:08;101118.66;;;12.33;99.09
65997;BME280;52765;52.258;21.052;2022-09-01T03:10:38;101109.88;;;12.31;99.10
65997;BME280;52765;52.258;21.052;2022-09-01T03:13:18;101107.88;;;12.33;98.98
65997;BME280;52765;52.258;21.052;2022-09-01T03:15:45;101112.47;;;12.23;99.49
65997;BME280;52765;52.258;21.052;2022-09-01T03:18:13;101113.16;;;12.25;99.61
65997;BME280;52765;52.258;21.052;2022-09-01T03:20:41;101114.00;;;12.26;99.19
65997;BME280;52765;52.258;21.052;2022-09-01T03:23:10;101111.22;;;12.17;99.39
65997;BME280;52765;52.258;21.052;2022-09-01T03:25:40;101114.22;;;12.14;99.46
65997;BME280;52765;52.258;21.052;2022-09-01T03:28:06;101123.03;;;12.07;100.00
65997;BME280;52765;52.258;21.052;2022-09-01T03:30:35;101106.88;;;11.87;100.00
65997;BME280;52765;52.258;21.052;2022-09-01T03:33:05;101122.53;;;11.93;100.00
65997;BME280;52765;52.258;21.052;2022-09-01T03:35:32;101129.03;;;12.00;100.00
65997;BME280;52765;52.258;21.052;2022-09-01T03:37:59;101126.31;;;12.00;100.00
65997;BME280;52765;52.258;21.052;2022-09-01T03:40:29;101114.28;;;11.95;100.00
65997;BME280;52765;52.258;21.052;2022-09-01T03:42:59;101121.94;;;11.99;100.00
65997;BME280;52765;52.258;21.052;2022-09-01T03:45:25;101116.44;;;11.91;100.00
65997;BME280;52765;52.258;21.052;2022-09-01T03:47:54;101124.38;;;11.93;100.00
65997;BME280;52765;52.258;21.052;2022-09-01T03:50:23;101124.66;;;11.80;100.00
65997;BME280;52765;52.258;21.052;2022-09-01T03:52:52;101122.94;;;11.79;100.00
65997;BME280;52765;52.258;21.052;2022-09-01T03:55:21;101118.56;;;11.78;100.00
65997;BME280;52765;52.258;21.052;2022-09-01T03:57:57;101118.41;;;11.79;100.00
65997;BME280;52765;52.258;21.052;2022-09-01T04:00:25;101114.56;;;11.82;100.00
65997;BME280;52765;52.258;21.052;2022-09-01T04:02:56;101108.47;;;11.70;100.00
65997;BME280;52765;52.258;21.052;2022-09-01T04:05:24;101105.66;;;11.72;100.00
65997;BME280;52765;52.258;21.052;2022-09-01T04:07:55;101104.50;;;11.74;100.00
65997;BME280;52765;52.258;21.052;2022-09-01T04:10:21;101112.59;;;11.84;100.00
65997;BME280;52765;52.258;21.052;2022-09-01T04:12:48;101119.97;;;11.82;100.00
65997;BME280;52765;52.258;21.052;2022-09-01T04:15:15;101121.84;;;11.72;100.00
65997;BME280;52765;52.258;21.052;2022-09-01T04:17:45;101115.47;;;11.73;100.00
65997;BME280;52765;52.258;21.052;2022-09-01T04:20:38;101110.06;;;11.73;100.00
65997;BME280;52765;52.258;21.052;2022-09-01T04:23:31;101110.75;;;11.75;100.00
65997;BME280;52765;52.258;21.052;2022-09-01T04:26:08;101119.53;;;11.77;100.00
65997;BME280;52765;52.258;21.052;2022-09-01T04:28:46;101113.16;;;11.78;100.00
65997;BME280;52765;52.258;21.052;2022-09-01T04:31:17;101124.41;;;11.73;100.00
65997;BME280;52765;52.258;21.052;2022-09-01T04:33:49;101103.34;;;11.77;100.00
65997;BME280;52765;52.258;21.052;2022-09-01T04:36:26;101119.84;;;11.64;100.00
65997;BME280;52765;52.258;21.052;2022-09-01T04:38:58;101117.19;;;11.54;100.00
65997;BME280;52765;52.258;21.052;2022-09-01T04:41:27;101115.63;;;11.61;100.00
65997;BME280;52765;52.258;21.052;2022-09-01T04:43:55;101128.06;;;11.72;100.00
65997;BME280;52765;52.258;21.052;2022-09-01T04:46:23;101109.91;;;11.74;100.00
65997;BME280;52765;52.258;21.052;2022-09-01T04:48:54;101105.47;;;11.83;100.00
65997;BME280;52765;52.258;21.052;2022-09-01T04:51:21;101114.97;;;11.87;100.00
65997;BME280;52765;52.258;21.052;2022-09-01T04:53:47;101130.63;;;11.93;100.00
65997;BME280;52765;52.258;21.052;2022-09-01T04:56:17;101121.53;;;11.94;100.00
65997;BME280;52765;52.258;21.052;2022-09-01T04:58:48;101123.94;;;11.97;100.00
65997;BME280;52765;52.258;21.052;2022-09-01T05:01:17;101097.09;;;11.86;100.00
65997;BME280;52765;52.258;21.052;2022-09-01T05:03:43;101105.31;;;12.04;100.00
65997;BME280;52765;52.258;21.052;2022-09-01T05:06:17;101114.66;;;12.10;99.94
65997;BME280;52765;52.258;21.052;2022-09-01T05:08:43;101125.47;;;12.10;99.59
65997;BME280;52765;52.258;21.052;2022-09-01T05:11:12;101125.13;;;12.23;99.77
65997;BME280;52765;52.258;21.052;2022-09-01T05:13:45;101121.25;;;12.25;99.09
65997;BME280;52765;52.258;21.052;2022-09-01T05:16:19;101110.56;;;12.33;98.65
65997;BME280;52765;52.258;21.052;2022-09-01T05:18:48;101108.94;;;12.40;97.61
65997;BME280;52765;52.258;21.052;2022-09-01T05:21:16;101118.19;;;12.48;96.98
65997;BME280;52765;52.258;21.052;2022-09-01T05:23:43;101114.06;;;12.44;97.72
65997;BME280;52765;52.258;21.052;2022-09-01T05:26:22;101128.19;;;12.37;98.32
65997;BME280;52765;52.258;21.052;2022-09-01T05:28:52;101121.06;;;12.36;98.24
65997;BME280;52765;52.258;21.052;2022-09-01T05:31:19;101120.00;;;12.47;97.12
65997;BME280;52765;52.258;21.052;2022-09-01T05:33:47;101120.00;;;12.47;96.79
65997;BME280;52765;52.258;21.052;2022-09-01T05:36:16;101123.78;;;12.64;96.84
65997;BME280;52765;52.258;21.052;2022-09-01T05:38:43;101121.88;;;12.74;96.54
65997;BME280;52765;52.258;21.052;2022-09-01T05:41:11;101125.94;;;12.78;95.51
65997;BME280;52765;52.258;21.052;2022-09-01T05:43:41;101121.72;;;12.76;95.87
65997;BME280;52765;52.258;21.052;2022-09-01T05:46:24;101121.31;;;12.89;95.57
65997;BME280;52765;52.258;21.052;2022-09-01T05:48:52;101106.81;;;12.90;95.00
65997;BME280;52765;52.258;21.052;2022-09-01T05:51:23;101110.22;;;13.10;93.66
65997;BME280;52765;52.258;21.052;2022-09-01T05:53:54;101116.91;;;13.24;93.01
65997;BME280;52765;52.258;21.052;2022-09-01T05:56:24;101116.06;;;13.23;91.72
65997;BME280;52765;52.258;21.052;2022-09-01T05:58:51;101116.03;;;13.33;91.28
65997;BME280;52765;52.258;21.052;2022-09-01T06:01:27;101116.09;;;13.41;91.13
65997;BME280;52765;52.258;21.052;2022-09-01T06:03:59;101118.88;;;13.49;90.72
65997;BME280;52765;52.258;21.052;2022-09-01T06:06:27;101118.94;;;13.58;90.28
65997;BME280;52765;52.258;21.052;2022-09-01T06:08:53;101114.88;;;13.62;89.78
65997;BME280;52765;52.258;21.052;2022-09-01T06:11:27;101119.75;;;13.76;89.18
65997;BME280;52765;52.258;21.052;2022-09-01T06:13:57;101100.63;;;13.78;88.11
65997;BME280;52765;52.258;21.052;2022-09-01T06:16:24;101107.47;;;13.90;87.15
65997;BME280;52765;52.258;21.052;2022-09-01T06:18:51;101099.84;;;13.94;85.96
65997;BME280;52765;52.258;21.052;2022-09-01T06:21:19;101102.81;;;14.09;84.47
65997;BME280;52765;52.258;21.052;2022-09-01T06:23:46;101109.63;;;14.13;83.71
65997;BME280;52765;52.258;21.052;2022-09-01T06:26:22;101114.72;;;14.16;83.52
65997;BME280;52765;52.258;21.052;2022-09-01T06:28:48;101113.53;;;14.18;83.10
65997;BME280;52765;52.258;21.052;2022-09-01T06:31:23;101117.69;;;14.31;81.89
65997;BME280;52765;52.258;21.052;2022-09-01T06:33:54;101123.81;;;14.41;81.04
65997;BME280;52765;52.258;21.052;2022-09-01T06:36:23;101124.00;;;14.48;79.17
65997;BME280;52765;52.258;21.052;2022-09-01T06:38:50;101121.97;;;14.50;78.66
65997;BME280;52765;52.258;21.052;2022-09-01T06:41:17;101104.34;;;14.46;77.60
65997;BME280;52765;52.258;21.052;2022-09-01T06:43:50;101128.13;;;14.60;77.90
65997;BME280;52765;52.258;21.052;2022-09-01T06:46:19;101123.22;;;14.64;76.84
65997;BME280;52765;52.258;21.052;2022-09-01T06:48:45;101123.09;;;14.73;77.06
65997;BME280;52765;52.258;21.052;2022-09-01T06:51:21;101121.97;;;14.84;76.99
65997;BME280;52765;52.258;21.052;2022-09-01T06:53:50;101125.38;;;14.94;76.28
65997;BME280;52765;52.258;21.052;2022-09-01T06:56:21;101111.31;;;14.99;75.76
65997;BME280;52765;52.258;21.052;2022-09-01T06:58:51;101134.53;;;15.10;75.89
65997;BME280;52765;52.258;21.052;2022-09-01T07:01:18;101120.13;;;15.01;76.33
65997;BME280;52765;52.258;21.052;2022-09-01T07:03:49;101131.00;;;15.17;75.90
65997;BME280;52765;52.258;21.052;2022-09-01T07:06:17;101123.03;;;15.16;76.35
65997;BME280;52765;52.258;21.052;2022-09-01T07:08:43;101126.75;;;15.23;76.43
65997;BME280;52765;52.258;21.052;2022-09-01T07:11:21;101127.75;;;15.39;76.01
65997;BME280;52765;52.258;21.052;2022-09-01T07:13:53;101133.03;;;15.48;75.69
65997;BME280;52765;52.258;21.052;2022-09-01T07:16:21;101123.69;;;15.67;74.81
65997;BME280;52765;52.258;21.052;2022-09-01T07:18:51;101128.09;;;15.85;74.21
65997;BME280;52765;52.258;21.052;2022-09-01T07:21:18;101127.56;;;16.06;72.77
65997;BME280;52765;52.258;21.052;2022-09-01T07:23:44;101123.13;;;16.13;72.03
65997;BME280;52765;52.258;21.052;2022-09-01T07:26:11;101129.34;;;16.30;71.48
65997;BME280;52765;52.258;21.052;2022-09-01T07:28:45;101106.09;;;16.27;70.22
65997;BME280;52765;52.258;21.052;2022-09-01T07:31:22;101115.41;;;16.33;68.59
65997;BME280;52765;52.258;21.052;2022-09-01T07:33:50;101127.00;;;16.27;68.89
65997;BME280;52765;52.258;21.052;2022-09-01T07:36:18;101126.81;;;16.20;69.21
65997;BME280;52765;52.258;21.052;2022-09-01T07:38:44;101127.13;;;16.34;69.10
65997;BME280;52765;52.258;21.052;2022-09-01T07:41:10;101131.66;;;16.50;68.59
65997;BME280;52765;52.258;21.052;2022-09-01T07:43:40;101128.25;;;16.48;67.96
65997;BME280;52765;52.258;21.052;2022-09-01T07:46:10;101129.25;;;16.55;68.02
65997;BME280;52765;52.258;21.052;2022-09-01T07:48:37;101127.66;;;16.69;67.40
65997;BME280;52765;52.258;21.052;2022-09-01T07:51:03;101120.66;;;16.74;66.99
65997;BME280;52765;52.258;21.052;2022-09-01T07:53:31;101117.56;;;16.77;66.62
65997;BME280;52765;52.258;21.052;2022-09-01T07:56:06;101125.09;;;16.98;65.13
65997;BME280;52765;52.258;21.052;2022-09-01T07:58:34;101128.66;;;17.07;64.78
65997;BME280;52765;52.258;21.052;2022-09-01T08:01:00;101116.53;;;17.33;63.86
65997;BME280;52765;52.258;21.052;2022-09-01T08:03:27;101137.00;;;17.67;62.30
65997;BME280;52765;52.258;21.052;2022-09-01T08:05:53;101124.25;;;17.67;61.20
65997;BME280;52765;52.258;21.052;2022-09-01T08:08:22;101117.47;;;17.78;59.90
65997;BME280;52765;52.258;21.052;2022-09-01T08:10:48;101128.66;;;17.83;59.98
65997;BME280;52765;52.258;21.052;2022-09-01T08:13:14;101119.09;;;17.72;59.30
65997;BME280;52765;52.258;21.052;2022-09-01T08:15:40;101122.75;;;17.80;58.51
65997;BME280;52765;52.258;21.052;2022-09-01T08:18:06;101113.84;;;17.86;58.33
65997;BME280;52765;52.258;21.052;2022-09-01T08:20:33;101117.94;;;17.82;58.25
65997;BME280;52765;52.258;21.052;2022-09-01T08:23:04;101121.91;;;17.79;56.56
65997;BME280;52765;52.258;21.052;2022-09-01T08:25:32;101120.84;;;17.80;56.18
65997;BME280;52765;52.258;21.052;2022-09-01T08:28:00;101118.59;;;17.69;56.01
65997;BME280;52765;52.258;21.052;2022-09-01T08:30:26;101122.69;;;17.50;56.58
65997;BME280;52765;52.258;21.052;2022-09-01T08:32:52;101119.72;;;17.36;57.44
65997;BME280;52765;52.258;21.052;2022-09-01T08:35:18;101115.94;;;17.23;58.04
65997;BME280;52765;52.258;21.052;2022-09-01T08:37:43;101107.06;;;17.06;58.89
65997;BME280;52765;52.258;21.052;2022-09-01T08:40:15;101119.91;;;17.12;59.86
65997;BME280;52765;52.258;21.052;2022-09-01T08:45:48;101124.75;;;17.25;60.92
65997;BME280;52765;52.258;21.052;2022-09-01T08:48:41;101120.75;;;17.59;59.40
65997;BME280;52765;52.258;21.052;2022-09-01T08:51:21;101120.13;;;17.86;57.33
65997;BME280;52765;52.258;21.052;2022-09-01T08:53:58;101105.97;;;18.06;56.73
65997;BME280;52765;52.258;21.052;2022-09-01T08:56:26;101096.38;;;17.95;54.88
65997;BME280;52765;52.258;21.052;2022-09-01T08:58:52;101108.06;;;17.89;55.81
65997;BME280;52765;52.258;21.052;2022-09-01T09:01:24;101120.25;;;18.08;55.81
65997;BME280;52765;52.258;21.052;2022-09-01T09:06:24;101089.91;;;18.11;55.18
65997;BME280;52765;52.258;21.052;2022-09-01T09:11:45;101087.63;;;18.81;53.08
65997;BME280;52765;52.258;21.052;2022-09-01T09:14:33;101111.28;;;19.10;51.75
65997;BME280;52765;52.258;21.052;2022-09-01T09:17:02;101098.19;;;18.84;49.96
65997;BME280;52765;52.258;21.052;2022-09-01T09:19:38;101088.69;;;19.01;50.01
65997;BME280;52765;52.258;21.052;2022-09-01T09:22:08;101090.84;;;19.06;49.71
65997;BME280;52765;52.258;21.052;2022-09-01T09:27:24;101097.00;;;19.15;49.88
65997;BME280;52765;52.258;21.052;2022-09-01T09:29:58;101093.13;;;19.24;49.43
65997;BME280;52765;52.258;21.052;2022-09-01T09:35:37;101089.72;;;19.44;49.56
65997;BME280;52765;52.258;21.052;2022-09-01T09:41:18;101096.22;;;19.42;48.19
65997;BME280;52765;52.258;21.052;2022-09-01T09:46:40;101095.75;;;19.60;48.27
65997;BME280;52765;52.258;21.052;2022-09-01T09:49:20;101082.63;;;19.49;47.02
65997;BME280;52765;52.258;21.052;2022-09-01T09:51:57;101093.50;;;19.71;48.10
65997;BME280;52765;52.258;21.052;2022-09-01T09:54:38;101072.16;;;19.81;47.66
65997;BME280;52765;52.258;21.052;2022-09-01T10:02:35;101080.81;;;19.63;46.73
65997;BME280;52765;52.258;21.052;2022-09-01T10:08:11;101092.09;;;18.67;47.21
65997;BME280;52765;52.258;21.052;2022-09-01T10:10:41;101097.41;;;18.90;46.67
65997;BME280;52765;52.258;21.052;2022-09-01T10:13:10;101086.28;;;19.13;46.37
65997;BME280;52765;52.258;21.052;2022-09-01T10:15:38;101085.03;;;19.37;45.83
65997;BME280;52765;52.258;21.052;2022-09-01T10:18:09;101086.56;;;19.47;44.97
65997;BME280;52765;52.258;21.052;2022-09-01T10:20:43;101092.97;;;19.54;43.79
65997;BME280;52765;52.258;21.052;2022-09-01T10:23:11;101085.53;;;19.48;44.76
65997;BME280;52765;52.258;21.052;2022-09-01T10:25:37;101065.56;;;19.19;45.86
65997;BME280;52765;52.258;21.052;2022-09-01T10:28:14;101083.84;;;19.47;45.33
65997;BME280;52765;52.258;21.052;2022-09-01T10:30:43;101083.75;;;19.62;45.67
65997;BME280;52765;52.258;21.052;2022-09-01T10:33:13;101089.75;;;19.72;44.90
65997;BME280;52765;52.258;21.052;2022-09-01T10:35:44;101098.63;;;19.52;44.93
65997;BME280;52765;52.258;21.052;2022-09-01T10:40:44;101085.31;;;19.21;45.22
65997;BME280;52765;52.258;21.052;2022-09-01T10:43:36;101087.38;;;19.40;44.84
65997;BME280;52765;52.258;21.052;2022-09-01T10:48:47;101070.34;;;19.95;42.86
65997;BME280;52765;52.258;21.052;2022-09-01T10:53:52;101082.16;;;20.44;42.83
65997;BME280;52765;52.258;21.052;2022-09-01T11:06:32;101089.47;;;20.30;41.25
65997;BME280;52765;52.258;21.052;2022-09-01T11:09:05;101080.44;;;20.36;41.58
65997;BME280;52765;52.258;21.052;2022-09-01T11:14:21;101079.84;;;19.99;42.87
65997;BME280;52765;52.258;21.052;2022-09-01T11:17:14;101078.75;;;19.65;43.47
65997;BME280;52765;52.258;21.052;2022-09-01T11:19:45;101083.94;;;19.82;43.38
65997;BME280;52765;52.258;21.052;2022-09-01T11:22:24;101076.91;;;20.01;41.52
65997;BME280;52765;52.258;21.052;2022-09-01T11:30:21;101084.69;;;21.07;39.44
65997;BME280;52765;52.258;21.052;2022-09-01T11:32:51;101088.91;;;21.10;39.62
65997;BME280;52765;52.258;21.052;2022-09-01T11:35:22;101081.94;;;20.94;39.69
65997;BME280;52765;52.258;21.052;2022-09-01T11:37:51;101083.63;;;21.01;40.39
65997;BME280;52765;52.258;21.052;2022-09-01T11:40:26;101071.50;;;20.62;40.88
65997;BME280;52765;52.258;21.052;2022-09-01T11:42:53;101095.97;;;20.22;41.93
65997;BME280;52765;52.258;21.052;2022-09-01T11:45:30;101078.53;;;19.95;41.75
65997;BME280;52765;52.258;21.052;2022-09-01T11:48:01;101085.63;;;20.18;40.56
65997;BME280;52765;52.258;21.052;2022-09-01T11:50:36;101077.53;;;20.44;38.50
65997;BME280;52765;52.258;21.052;2022-09-01T11:55:32;101069.72;;;21.30;36.54
65997;BME280;52765;52.258;21.052;2022-09-01T11:57:59;101064.28;;;21.50;36.13
65997;BME280;52765;52.258;21.052;2022-09-01T12:00:32;101083.00;;;21.19;37.69
65997;BME280;52765;52.258;21.052;2022-09-01T12:03:00;101074.59;;;20.46;38.46
65997;BME280;52765;52.258;21.052;2022-09-01T12:05:35;101080.56;;;20.14;38.66
65997;BME280;52765;52.258;21.052;2022-09-01T12:08:15;101065.13;;;19.72;39.42
65997;BME280;52765;52.258;21.052;2022-09-01T12:10:44;101088.19;;;19.91;39.70
65997;BME280;52765;52.258;21.052;2022-09-01T12:15:40;101070.56;;;20.97;37.88
65997;BME280;52765;52.258;21.052;2022-09-01T12:18:13;101080.28;;;21.46;37.20
65997;BME280;52765;52.258;21.052;2022-09-01T12:20:44;101064.72;;;21.67;36.22
65997;BME280;52765;52.258;21.052;2022-09-01T12:23:45;101059.59;;;21.90;35.57
65997;BME280;52765;52.258;21.052;2022-09-01T12:26:17;101059.47;;;22.37;35.16
65997;BME280;52765;52.258;21.052;2022-09-01T12:28:44;101060.13;;;22.71;33.98
65997;BME280;52765;52.258;21.052;2022-09-01T12:31:19;101050.38;;;23.14;33.90
65997;BME280;52765;52.258;21.052;2022-09-01T12:33:47;101054.06;;;22.94;34.08
65997;BME280;52765;52.258;21.052;2022-09-01T12:38:41;101035.59;;;21.46;36.73
65997;BME280;52765;52.258;21.052;2022-09-01T12:41:31;101058.34;;;21.33;37.71
65997;BME280;52765;52.258;21.052;2022-09-01T12:44:28;101054.53;;;20.87;37.65
65997;BME280;52765;52.258;21.052;2022-09-01T12:46:54;101050.16;;;20.44;38.74
65997;BME280;52765;52.258;21.052;2022-09-01T12:49:43;101063.13;;;20.22;39.11
65997;BME280;52765;52.258;21.052;2022-09-01T12:54:38;101056.31;;;20.05;39.48
65997;BME280;52765;52.258;21.052;2022-09-01T12:57:04;101051.38;;;19.87;39.65
65997;BME280;52765;52.258;21.052;2022-09-01T12:59:30;101055.75;;;19.81;40.19
65997;BME280;52765;52.258;21.052;2022-09-01T13:01:56;101049.72;;;19.64;40.00
65997;BME280;52765;52.258;21.052;2022-09-01T13:04:24;101032.84;;;19.54;40.34
65997;BME280;52765;52.258;21.052;2022-09-01T13:06:52;101040.22;;;19.60;39.42
65997;BME280;52765;52.258;21.052;2022-09-01T13:09:18;101033.13;;;20.42;38.20
65997;BME280;52765;52.258;21.052;2022-09-01T13:11:44;101038.13;;;21.20;36.97
65997;BME280;52765;52.258;21.052;2022-09-01T13:14:14;101037.66;;;21.90;36.36
65997;BME280;52765;52.258;21.052;2022-09-01T13:16:41;101031.72;;;22.52;35.40
65997;BME280;52765;52.258;21.052;2022-09-01T13:19:07;101032.06;;;22.69;34.54
65997;BME280;52765;52.258;21.052;2022-09-01T13:21:34;101035.63;;;23.01;34.48
65997;BME280;52765;52.258;21.052;2022-09-01T13:24:03;101021.41;;;23.36;34.24
65997;BME280;52765;52.258;21.052;2022-09-01T13:26:30;101031.91;;;23.46;33.68
65997;BME280;52765;52.258;21.052;2022-09-01T13:28:57;101030.81;;;23.72;33.28
65997;BME280;52765;52.258;21.052;2022-09-01T13:31:24;101028.25;;;23.52;33.10
65997;BME280;52765;52.258;21.052;2022-09-01T13:33:49;101024.13;;;22.86;34.66
65997;BME280;52765;52.258;21.052;2022-09-01T13:36:15;101034.81;;;22.17;36.05
65997;BME280;52765;52.258;21.052;2022-09-01T13:38:40;101046.56;;;21.46;37.44
65997;BME280;52765;52.258;21.052;2022-09-01T13:41:06;101045.06;;;20.96;38.70
65997;BME280;52765;52.258;21.052;2022-09-01T13:43:33;101040.41;;;20.70;39.15
65997;BME280;52765;52.258;21.052;2022-09-01T13:45:59;101047.84;;;20.48;39.02
65997;BME280;52765;52.258;21.052;2022-09-01T13:48:24;101047.19;;;20.32;39.82
65997;BME280;52765;52.258;21.052;2022-09-01T13:50:52;101050.72;;;20.26;39.62
65997;BME280;52765;52.258;21.052;2022-09-01T13:53:18;101052.81;;;20.18;40.54
65997;BME280;52765;52.258;21.052;2022-09-01T13:55:44;101054.00;;;20.08;41.26
65997;BME280;52765;52.258;21.052;2022-09-01T13:58:10;101055.41;;;19.91;41.73
65997;BME280;52765;52.258;21.052;2022-09-01T14:00:39;101049.44;;;19.81;41.95
65997;BME280;52765;52.258;21.052;2022-09-01T14:03:09;101053.94;;;19.67;42.53
65997;BME280;52765;52.258;21.052;2022-09-01T14:05:38;101053.34;;;19.43;42.85
65997;BME280;52765;52.258;21.052;2022-09-01T14:08:05;101058.38;;;19.39;42.81